createdAt,value
2023-02-06T00:00:25.691Z,3.68
2023-02-06T00:02:52.247Z,3.68
2023-02-06T00:05:18.859Z,3.68
2023-02-06T00:07:46.829Z,3.70
2023-02-06T00:10:13.514Z,3.72
2023-02-06T00:12:40.060Z,3.72
2023-02-06T00:15:07.216Z,3.71
2023-02-06T00:17:35.117Z,3.69
2023-02-06T00:20:01.920Z,3.71
2023-02-06T00:22:28.469Z,3.71
2023-02-06T00:24:56.341Z,3.70
2023-02-06T00:27:22.942Z,3.69
2023-02-06T00:29:49.511Z,3.71
2023-02-06T00:32:16.334Z,3.72
2023-02-06T00:34:42.896Z,3.74
2023-02-06T00:37:09.451Z,3.73
2023-02-06T00:39:36.132Z,3.71
2023-02-06T00:42:04.126Z,3.70
2023-02-06T00:44:30.672Z,3.71
2023-02-06T00:46:58.721Z,3.66
2023-02-06T00:49:25.514Z,3.71
2023-02-06T00:51:52.056Z,3.71
2023-02-06T00:54:20.779Z,3.69
2023-02-06T00:56:47.536Z,3.65
2023-02-06T00:59:15.483Z,3.66
2023-02-06T01:01:42.179Z,3.65
2023-02-06T01:04:08.723Z,3.67
2023-02-06T01:06:35.259Z,3.64
2023-02-06T01:09:01.820Z,3.66
2023-02-06T01:11:28.461Z,3.31
2023-02-06T01:13:55.188Z,3.45
2023-02-06T01:16:24.823Z,3.61
2023-02-06T01:18:51.204Z,3.61
2023-02-06T01:21:22.847Z,3.65
2023-02-06T01:23:51.985Z,3.63
2023-02-06T01:26:20.264Z,3.63
2023-02-06T01:28:47.871Z,3.63
2023-02-06T01:31:17.248Z,3.62
2023-02-06T01:33:46.094Z,3.61
2023-02-06T01:36:13.449Z,3.63
2023-02-06T01:38:40.735Z,3.63
2023-02-06T01:41:08.987Z,3.63
2023-02-06T01:43:36.989Z,3.67
2023-02-06T01:46:04.060Z,3.62
2023-02-06T01:48:34.305Z,3.64
2023-02-06T01:51:05.173Z,3.62
2023-02-06T01:53:32.679Z,3.63
2023-02-06T01:56:04.619Z,3.66
2023-02-06T01:58:34.302Z,3.61
2023-02-06T02:01:01.577Z,3.59
2023-02-06T02:03:29.927Z,3.61
2023-02-06T02:06:05.932Z,3.60
2023-02-06T02:08:36.657Z,3.62
2023-02-06T02:11:05.297Z,3.60
2023-02-06T02:13:32.157Z,3.61
2023-02-06T02:16:01.056Z,3.62
2023-02-06T02:18:55.381Z,3.61
2023-02-06T02:21:58.586Z,3.59
2023-02-06T02:24:38.787Z,3.59
2023-02-06T02:27:29.902Z,3.60
2023-02-06T02:30:41.577Z,3.58
2023-02-06T02:33:20.030Z,3.59
2023-02-06T02:35:54.730Z,3.57
2023-02-06T02:38:30.530Z,3.58
2023-02-06T02:41:03.696Z,3.51
2023-02-06T02:43:38.252Z,3.58
2023-02-06T02:46:14.035Z,3.41
2023-02-06T02:48:44.033Z,3.47
2023-02-06T02:51:12.649Z,3.57
2023-02-06T02:53:39.447Z,3.55
2023-02-06T02:56:16.156Z,3.58
2023-02-06T02:58:45.870Z,3.59
2023-02-06T03:01:14.110Z,3.58
2023-02-06T03:03:44.560Z,3.58
2023-02-06T03:06:38.547Z,3.57
2023-02-06T03:09:11.546Z,3.55
2023-02-06T03:11:44.191Z,3.54
2023-02-06T03:14:17.871Z,3.52
2023-02-06T03:16:50.359Z,3.51
2023-02-06T03:19:21.559Z,3.53
2023-02-06T03:21:49.996Z,3.53
2023-02-06T03:24:21.192Z,3.52
2023-02-06T03:26:50.214Z,3.51
2023-02-06T03:29:18.769Z,3.50
2023-02-06T03:31:49.591Z,3.50
2023-02-06T03:34:22.154Z,3.52
2023-02-06T03:36:51.700Z,3.52
2023-02-06T03:39:18.585Z,3.53
2023-02-06T03:41:47.055Z,3.47
2023-02-06T03:44:18.818Z,2.99
2023-02-06T03:46:47.539Z,3.34
2023-02-06T03:49:16.807Z,3.25
2023-02-06T03:51:47.382Z,2.21
2023-02-06T03:54:19.318Z,2.46
2023-02-06T03:56:52.214Z,3.08
2023-02-06T03:59:18.810Z,3.16
2023-02-06T04:01:49.118Z,2.42
2023-02-06T04:04:16.138Z,2.33
2023-02-06T04:06:42.954Z,2.89
2023-02-06T04:09:09.546Z,2.72
2023-02-06T04:11:37.441Z,2.22
2023-02-06T04:14:04.200Z,1.19
2023-02-06T04:16:30.857Z,1.10
2023-02-06T04:18:57.472Z,1.23
2023-02-06T04:21:24.001Z,1.16
2023-02-06T04:23:50.539Z,0.86
2023-02-06T04:26:17.069Z,1.40
2023-02-06T04:28:44.965Z,1.17
2023-02-06T04:31:11.609Z,1.25
2023-02-06T04:33:38.198Z,1.07
2023-02-06T04:36:05.170Z,1.33
2023-02-06T04:38:31.690Z,2.19
2023-02-06T04:41:02.499Z,2.44
2023-02-06T04:43:29.134Z,2.88
2023-02-06T04:45:57.260Z,3.02
2023-02-06T04:48:23.830Z,3.09
2023-02-06T04:50:50.966Z,3.10
2023-02-06T04:53:17.661Z,3.15
2023-02-06T04:55:44.183Z,3.13
2023-02-06T04:58:10.944Z,3.15
2023-02-06T05:00:38.811Z,3.12
2023-02-06T05:03:07.161Z,3.15
2023-02-06T05:05:33.829Z,3.17
2023-02-06T05:08:00.529Z,3.17
2023-02-06T05:10:27.418Z,3.17
2023-02-06T05:12:55.976Z,3.21
2023-02-06T05:15:22.780Z,3.19
2023-02-06T05:17:49.330Z,3.22
2023-02-06T05:20:17.569Z,2.82
2023-02-06T05:22:44.099Z,3.12
2023-02-06T05:25:10.626Z,3.17
2023-02-06T05:27:37.153Z,3.20
2023-02-06T05:30:04.346Z,3.22
2023-02-06T05:32:30.881Z,3.22
2023-02-06T05:34:57.437Z,3.19
2023-02-06T05:37:25.294Z,3.22
2023-02-06T05:39:51.860Z,3.23
2023-02-06T05:42:18.374Z,3.23
2023-02-06T05:44:44.917Z,3.21
2023-02-06T05:47:11.464Z,3.20
2023-02-06T05:49:38.104Z,3.22
2023-02-06T05:52:05.380Z,3.25
2023-02-06T05:54:33.245Z,2.89
2023-02-06T05:56:59.882Z,3.16
2023-02-06T05:59:26.546Z,3.19
2023-02-06T06:01:53.343Z,3.21
2023-02-06T06:04:19.894Z,3.19
2023-02-06T06:06:46.473Z,3.24
2023-02-06T06:09:13.005Z,3.25
2023-02-06T06:11:40.880Z,3.22
2023-02-06T06:14:07.446Z,3.22
2023-02-06T06:16:34.431Z,3.23
2023-02-06T06:19:01.827Z,3.22
2023-02-06T06:21:28.379Z,3.20
2023-02-06T06:23:54.937Z,3.20
2023-02-06T06:26:21.738Z,3.21
2023-02-06T06:28:49.598Z,3.19
2023-02-06T06:31:16.434Z,3.19
2023-02-06T06:33:43.044Z,3.19
2023-02-06T06:36:14.232Z,3.17
2023-02-06T06:38:41.311Z,3.18
2023-02-06T06:41:07.982Z,3.17
2023-02-06T06:43:34.782Z,3.16
2023-02-06T06:46:04.592Z,3.07
2023-02-06T06:48:31.541Z,3.16
2023-02-06T06:50:58.087Z,3.17
2023-02-06T06:53:24.616Z,3.17
2023-02-06T06:55:51.140Z,3.22
2023-02-06T06:58:17.689Z,3.19
2023-02-06T07:00:44.870Z,3.14
2023-02-06T07:03:12.891Z,3.15
2023-02-06T07:05:39.577Z,3.15
2023-02-06T07:08:06.307Z,3.14
2023-02-06T07:10:32.983Z,3.14
2023-02-06T07:12:59.566Z,3.13
2023-02-06T07:15:26.124Z,3.13
2023-02-06T07:17:52.710Z,3.18
2023-02-06T07:20:20.626Z,3.13
2023-02-06T07:22:47.566Z,2.79
2023-02-06T07:25:14.118Z,2.71
2023-02-06T07:27:40.689Z,2.73
2023-02-06T07:30:08.851Z,3.05
2023-02-06T07:32:35.695Z,3.10
2023-02-06T07:35:02.538Z,3.09
2023-02-06T07:37:30.644Z,3.10
2023-02-06T07:39:57.295Z,3.08
2023-02-06T07:42:23.846Z,3.10
2023-02-06T07:44:50.930Z,3.08
2023-02-06T07:47:17.524Z,3.08
2023-02-06T07:49:44.050Z,3.09
2023-02-06T07:52:10.602Z,3.10
2023-02-06T07:54:38.497Z,3.10
2023-02-06T07:57:05.038Z,3.10
2023-02-06T07:59:31.687Z,3.10
2023-02-06T08:01:58.453Z,3.09
2023-02-06T08:04:25.127Z,3.27
2023-02-06T08:06:52.843Z,3.11
2023-02-06T08:09:19.410Z,3.10
2023-02-06T08:11:47.527Z,3.09
2023-02-06T08:14:14.061Z,3.10
2023-02-06T08:16:40.853Z,3.10
2023-02-06T08:19:10.758Z,3.09
2023-02-06T08:21:37.584Z,3.11
2023-02-06T08:24:04.925Z,3.14
2023-02-06T08:26:31.965Z,3.08
2023-02-06T08:29:02.897Z,3.08
2023-02-06T08:31:31.561Z,2.52
2023-02-06T08:33:58.203Z,2.05
2023-02-06T08:36:25.867Z,1.07
2023-02-06T08:38:53.099Z,1.48
2023-02-06T08:41:22.090Z,1.65
2023-02-06T08:43:50.594Z,0.98
2023-02-06T08:46:19.853Z,0.98
2023-02-06T08:48:46.796Z,0.62
2023-02-06T08:51:14.239Z,0.59
2023-02-06T08:53:41.295Z,1.17
2023-02-06T08:56:10.424Z,1.77
2023-02-06T08:58:37.720Z,0.85
2023-02-06T09:01:07.789Z,0.47
2023-02-06T09:03:36.200Z,0.26
2023-02-06T09:06:09.694Z,0.68
2023-02-06T09:08:38.002Z,0.68
2023-02-06T09:11:05.453Z,0.20
2023-02-06T09:13:32.180Z,-0.17
2023-02-06T09:15:58.973Z,-0.22
2023-02-06T09:18:25.553Z,-0.24
2023-02-06T09:21:03.331Z,-0.11
2023-02-06T09:23:29.891Z,-0.13
2023-02-06T09:25:56.418Z,-0.16
2023-02-06T09:28:23.072Z,-0.15
2023-02-06T09:30:50.083Z,0.56
2023-02-06T09:33:16.692Z,1.03
2023-02-06T09:35:43.208Z,0.67
2023-02-06T09:38:11.146Z,0.60
2023-02-06T09:40:37.735Z,1.69
2023-02-06T09:43:05.082Z,1.92
2023-02-06T09:45:32.991Z,2.05
2023-02-06T09:48:06.219Z,2.13
2023-02-06T09:50:45.541Z,2.05
2023-02-06T09:53:20.889Z,2.18
2023-02-06T09:55:51.979Z,2.32
2023-02-06T09:58:30.071Z,2.37
2023-02-06T10:01:02.655Z,2.40
2023-02-06T10:03:44.934Z,1.62
2023-02-06T10:06:19.083Z,1.78
2023-02-06T10:08:54.067Z,2.30
2023-02-06T10:11:30.870Z,2.34
2023-02-06T10:14:00.577Z,2.44
2023-02-06T10:16:38.234Z,2.50
2023-02-06T10:19:09.718Z,2.49
2023-02-06T10:21:41.306Z,2.31
2023-02-06T10:24:17.853Z,2.04
2023-02-06T10:26:47.870Z,2.37
2023-02-06T10:29:21.011Z,2.47
2023-02-06T10:31:59.490Z,2.50
2023-02-06T10:34:47.397Z,2.48
2023-02-06T10:37:26.062Z,1.10
2023-02-06T10:40:03.154Z,2.19
2023-02-06T10:42:45.549Z,2.39
2023-02-06T10:45:22.042Z,2.45
2023-02-06T10:47:54.971Z,2.44
2023-02-06T10:50:26.747Z,1.62
2023-02-06T10:52:55.632Z,1.34
2023-02-06T10:55:27.371Z,1.36
2023-02-06T10:58:06.813Z,2.26
2023-02-06T11:00:34.448Z,1.84
2023-02-06T11:03:08.160Z,1.31
2023-02-06T11:05:35.991Z,1.34
2023-02-06T11:08:11.087Z,1.74
2023-02-06T11:10:39.950Z,2.19
2023-02-06T11:13:12.681Z,2.17
2023-02-06T11:15:45.575Z,1.65
2023-02-06T11:18:18.633Z,1.43
2023-02-06T11:20:48.370Z,1.83
2023-02-06T11:23:17.026Z,2.23
2023-02-06T11:25:46.086Z,2.14
2023-02-06T11:28:15.081Z,0.97
2023-02-06T11:30:53.318Z,0.90
2023-02-06T11:33:25.086Z,1.18
2023-02-06T11:35:54.783Z,1.42
2023-02-06T11:38:22.093Z,1.48
2023-02-06T11:41:00.537Z,2.17
2023-02-06T11:43:29.933Z,1.92
2023-02-06T11:46:13.763Z,2.02
2023-02-06T11:48:42.176Z,2.31
2023-02-06T11:51:10.420Z,2.38
2023-02-06T11:53:37.903Z,2.42
2023-02-06T11:56:16.570Z,2.46
2023-02-06T11:58:44.026Z,1.69
2023-02-06T12:01:18.140Z,2.01
2023-02-06T12:03:54.926Z,2.27
2023-02-06T12:06:28.191Z,2.42
2023-02-06T12:08:57.397Z,1.85
2023-02-06T12:11:29.456Z,2.01
2023-02-06T12:14:00.498Z,1.20
2023-02-06T12:16:27.669Z,1.61
2023-02-06T12:18:57.509Z,2.04
2023-02-06T12:21:30.127Z,2.24
2023-02-06T12:24:00.071Z,1.61
2023-02-06T12:26:30.396Z,2.06
2023-02-06T12:29:02.750Z,1.47
2023-02-06T12:31:38.227Z,1.78
2023-02-06T12:34:13.771Z,1.91
2023-02-06T12:36:53.303Z,1.13
2023-02-06T12:39:21.759Z,1.00
2023-02-06T12:42:06.538Z,1.13
2023-02-06T12:44:39.332Z,1.34
2023-02-06T12:47:18.834Z,2.03
2023-02-06T12:49:52.425Z,1.97
2023-02-06T12:52:24.914Z,1.98
2023-02-06T12:54:55.516Z,2.23
2023-02-06T12:57:26.763Z,2.18
2023-02-06T13:00:20.360Z,2.27
2023-02-06T13:03:12.704Z,2.41
2023-02-06T13:05:41.461Z,2.47
2023-02-06T13:08:12.896Z,2.46
2023-02-06T13:10:40.344Z,2.47
2023-02-06T13:13:25.732Z,2.52
2023-02-06T13:15:54.896Z,2.52
2023-02-06T13:18:54.025Z,2.56
2023-02-06T13:21:24.114Z,2.59
2023-02-06T13:24:06.491Z,2.60
2023-02-06T13:27:10.617Z,2.60
2023-02-06T13:29:39.601Z,2.57
2023-02-06T13:32:40.859Z,2.59
2023-02-06T13:35:20.006Z,0.58
2023-02-06T13:37:48.436Z,0.89
2023-02-06T13:40:27.383Z,0.27
2023-02-06T13:42:56.855Z,0.55
2023-02-06T13:45:27.612Z,1.37
2023-02-06T13:48:29.709Z,0.49
2023-02-06T13:51:25.745Z,0.36
2023-02-06T13:54:30.535Z,0.38
2023-02-06T13:57:16.989Z,0.66
2023-02-06T13:59:48.961Z,1.00
2023-02-06T14:02:24.231Z,1.13
2023-02-06T14:04:51.266Z,1.02
2023-02-06T14:07:54.890Z,1.34
2023-02-06T14:10:41.995Z,1.70
2023-02-06T14:13:23.562Z,1.75
2023-02-06T14:15:58.718Z,1.95
2023-02-06T14:18:38.309Z,1.09
2023-02-06T14:21:16.467Z,1.49
2023-02-06T14:24:07.542Z,1.28
2023-02-06T14:26:44.004Z,1.05
2023-02-06T14:29:22.174Z,1.47
2023-02-06T14:32:25.838Z,2.08
2023-02-06T14:35:06.016Z,1.86
2023-02-06T14:37:45.052Z,1.76
2023-02-06T14:40:17.778Z,1.82
2023-02-06T14:42:46.087Z,1.50
2023-02-06T14:45:25.718Z,0.97
2023-02-06T14:47:54.808Z,0.58
2023-02-06T14:50:25.262Z,0.65
2023-02-06T14:52:54.295Z,0.12
2023-02-06T14:55:30.540Z,0.06
2023-02-06T14:57:57.942Z,-0.01
2023-02-06T15:00:25.921Z,-0.37
2023-02-06T15:03:04.545Z,-0.46
2023-02-06T15:05:33.249Z,-0.01
2023-02-06T15:08:02.202Z,0.09
2023-02-06T15:10:30.804Z,0.90
2023-02-06T15:12:57.550Z,0.18
2023-02-06T15:15:25.751Z,1.28
2023-02-06T15:18:00.410Z,1.51
2023-02-06T15:20:30.467Z,0.74
2023-02-06T15:23:17.130Z,1.25
2023-02-06T15:25:58.625Z,1.07
2023-02-06T15:28:29.232Z,0.98
2023-02-06T15:30:57.425Z,1.59
2023-02-06T15:33:28.086Z,1.80
2023-02-06T15:35:56.616Z,1.78
2023-02-06T15:38:26.496Z,1.20
2023-02-06T15:40:55.877Z,1.86
2023-02-06T15:43:25.382Z,1.49
2023-02-06T15:45:55.589Z,1.82
2023-02-06T15:48:26.413Z,1.24
2023-02-06T15:50:58.371Z,0.43
2023-02-06T15:53:35.993Z,0.82
2023-02-06T15:56:04.724Z,1.93
2023-02-06T15:58:32.894Z,2.06
2023-02-06T16:01:00.476Z,2.08
2023-02-06T16:03:29.327Z,2.04
2023-02-06T16:05:56.700Z,1.99
2023-02-06T16:08:29.072Z,0.90
2023-02-06T16:11:01.074Z,1.67
2023-02-06T16:13:30.573Z,0.52
2023-02-06T16:16:07.149Z,1.38
2023-02-06T16:18:35.327Z,0.83
2023-02-06T16:21:14.691Z,0.32
2023-02-06T16:23:45.747Z,0.26
2023-02-06T16:26:16.783Z,0.06
2023-02-06T16:28:56.744Z,0.57
2023-02-06T16:31:25.614Z,0.12
2023-02-06T16:33:53.680Z,-0.61
2023-02-06T16:36:22.242Z,-0.28
2023-02-06T16:39:02.872Z,-0.58
2023-02-06T16:41:34.133Z,-0.15
2023-02-06T16:44:02.180Z,-0.29
2023-02-06T16:46:29.683Z,0.27
2023-02-06T16:48:58.284Z,1.49
2023-02-06T16:51:28.279Z,0.92
2023-02-06T16:53:55.340Z,0.99
2023-02-06T16:56:22.005Z,-0.20
2023-02-06T16:58:50.461Z,0.17
2023-02-06T17:01:22.905Z,1.26
2023-02-06T17:03:50.489Z,1.51
2023-02-06T17:06:20.756Z,0.09
2023-02-06T17:08:47.974Z,0.71
2023-02-06T17:11:14.605Z,0.58
2023-02-06T17:13:41.189Z,0.57
2023-02-06T17:16:15.002Z,1.21
2023-02-06T17:18:41.569Z,1.45
2023-02-06T17:21:12.605Z,1.75
2023-02-06T17:23:39.510Z,1.13
2023-02-06T17:26:06.316Z,1.75
2023-02-06T17:28:32.836Z,1.84
2023-02-06T17:30:59.433Z,1.93
2023-02-06T17:33:27.575Z,1.91
2023-02-06T17:35:54.148Z,1.71
2023-02-06T17:38:20.746Z,1.65
2023-02-06T17:40:47.349Z,1.19
2023-02-06T17:43:13.926Z,0.95
2023-02-06T17:45:40.822Z,0.67
2023-02-06T17:48:07.912Z,0.28
2023-02-06T17:50:38.037Z,-0.13
2023-02-06T17:53:05.891Z,0.82
2023-02-06T17:55:34.203Z,0.30
2023-02-06T17:58:01.169Z,0.79
2023-02-06T18:00:27.713Z,1.63
2023-02-06T18:02:55.669Z,1.39
2023-02-06T18:05:22.946Z,1.76
2023-02-06T18:07:51.826Z,0.77
2023-02-06T18:10:20.132Z,-0.65
2023-02-06T18:12:46.924Z,-0.30
2023-02-06T18:15:15.242Z,-1.35
2023-02-06T18:17:42.709Z,-1.35
2023-02-06T18:20:11.304Z,-1.41
2023-02-06T18:22:41.257Z,-0.44
2023-02-06T18:25:11.444Z,0.66
2023-02-06T18:27:39.421Z,1.14
2023-02-06T18:30:06.764Z,1.62
2023-02-06T18:32:33.871Z,1.68
2023-02-06T18:35:00.713Z,1.73
2023-02-06T18:37:27.574Z,1.77
2023-02-06T18:39:55.277Z,1.90
2023-02-06T18:42:41.792Z,1.96
2023-02-06T18:45:09.297Z,2.09
2023-02-06T18:47:35.867Z,2.13
2023-02-06T18:50:02.456Z,2.15
2023-02-06T18:52:29.158Z,2.16
2023-02-06T18:54:55.720Z,2.22
2023-02-06T18:57:23.646Z,2.21
2023-02-06T18:59:50.211Z,2.22
2023-02-06T19:02:16.884Z,2.21
2023-02-06T19:04:43.500Z,2.19
2023-02-06T19:07:11.618Z,2.18
2023-02-06T19:09:38.299Z,2.23
2023-02-06T19:12:05.064Z,2.22
2023-02-06T19:14:32.928Z,2.26
2023-02-06T19:16:59.559Z,2.29
2023-02-06T19:19:26.171Z,2.29
2023-02-06T19:21:52.811Z,2.32
2023-02-06T19:24:19.580Z,2.37
2023-02-06T19:26:46.392Z,2.37
2023-02-06T19:29:15.017Z,2.34
2023-02-06T19:31:43.247Z,2.38
2023-02-06T19:34:09.938Z,2.41
2023-02-06T19:36:36.726Z,2.43
2023-02-06T19:39:06.697Z,2.42
2023-02-06T19:41:34.292Z,2.43
2023-02-06T19:44:03.099Z,2.43
2023-02-06T19:46:29.703Z,2.43
2023-02-06T19:48:57.672Z,2.42
2023-02-06T19:51:26.558Z,2.43
2023-02-06T19:53:55.168Z,2.45
2023-02-06T19:56:23.667Z,2.45
2023-02-06T19:58:53.839Z,2.48
2023-02-06T20:01:20.667Z,2.51
2023-02-06T20:03:47.423Z,2.50
2023-02-06T20:06:15.736Z,2.51
2023-02-06T20:08:44.346Z,2.51
2023-02-06T20:11:13.612Z,2.51
2023-02-06T20:13:40.867Z,2.52
2023-02-06T20:16:14.233Z,2.52
2023-02-06T20:18:40.952Z,2.50
2023-02-06T20:21:20.758Z,2.50
2023-02-06T20:23:49.626Z,2.53
2023-02-06T20:26:17.695Z,2.54
2023-02-06T20:28:44.962Z,2.50
2023-02-06T20:31:12.086Z,2.49
2023-02-06T20:33:38.965Z,2.50
2023-02-06T20:36:06.599Z,2.50
2023-02-06T20:38:34.572Z,2.52
2023-02-06T20:41:01.316Z,2.51
2023-02-06T20:43:28.564Z,2.51
2023-02-06T20:45:55.244Z,2.54
2023-02-06T20:48:22.489Z,2.54
2023-02-06T20:50:49.045Z,2.54
2023-02-06T20:53:15.575Z,2.53
2023-02-06T20:55:44.134Z,2.54
2023-02-06T20:58:10.691Z,2.54
2023-02-06T21:00:37.506Z,2.56
2023-02-06T21:03:04.547Z,2.52
2023-02-06T21:05:31.175Z,2.53
2023-02-06T21:07:58.813Z,2.50
2023-02-06T21:10:27.961Z,2.51
2023-02-06T21:12:56.051Z,2.54
2023-02-06T21:15:22.681Z,2.59
2023-02-06T21:17:49.341Z,2.55
2023-02-06T21:20:15.947Z,2.54
2023-02-06T21:22:42.623Z,2.52
2023-02-06T21:25:09.366Z,2.51
2023-02-06T21:27:37.268Z,2.51
2023-02-06T21:30:06.480Z,2.50
2023-02-06T21:32:33.773Z,2.48
2023-02-06T21:35:00.410Z,2.51
2023-02-06T21:37:27.088Z,2.47
2023-02-06T21:39:53.644Z,2.49
2023-02-06T21:42:26.070Z,2.49
2023-02-06T21:44:52.800Z,1.77
2023-02-06T21:47:20.675Z,2.37
2023-02-06T21:49:47.276Z,2.44
2023-02-06T21:52:13.858Z,2.45
2023-02-06T21:54:40.469Z,2.44
2023-02-06T21:57:07.031Z,2.44
2023-02-06T21:59:34.133Z,2.44
2023-02-06T22:02:00.858Z,2.43
2023-02-06T22:04:29.229Z,2.42
2023-02-06T22:06:55.858Z,2.42
2023-02-06T22:09:23.070Z,2.41
2023-02-06T22:11:49.619Z,2.41
2023-02-06T22:14:17.823Z,2.40
2023-02-06T22:16:46.746Z,2.38
2023-02-06T22:19:14.561Z,2.40
2023-02-06T22:21:42.560Z,2.38
2023-02-06T22:24:11.458Z,2.37
2023-02-06T22:26:38.692Z,2.35
2023-02-06T22:29:06.282Z,2.34
2023-02-06T22:31:33.883Z,2.35
2023-02-06T22:34:01.101Z,2.33
2023-02-06T22:36:29.678Z,2.35
2023-02-06T22:38:59.662Z,2.34
2023-02-06T22:41:26.932Z,2.35
2023-02-06T22:43:53.549Z,2.34
2023-02-06T22:46:23.924Z,2.34
2023-02-06T22:48:51.071Z,2.29
2023-02-06T22:51:18.393Z,2.30
2023-02-06T22:53:45.371Z,2.29
2023-02-06T22:56:31.362Z,2.26
2023-02-06T22:59:00.166Z,2.27
2023-02-06T23:01:30.567Z,2.26
2023-02-06T23:03:57.787Z,2.25
2023-02-06T23:06:26.133Z,2.25
2023-02-06T23:08:53.244Z,2.23
2023-02-06T23:11:21.387Z,2.26
2023-02-06T23:13:51.568Z,2.21
2023-02-06T23:16:18.203Z,2.22
2023-02-06T23:18:44.768Z,2.19
2023-02-06T23:21:13.193Z,2.19
2023-02-06T23:23:40.754Z,0.17
2023-02-06T23:26:10.176Z,1.42
2023-02-06T23:28:38.766Z,2.09
2023-02-06T23:31:06.653Z,1.53
2023-02-06T23:33:34.048Z,2.15
2023-02-06T23:36:03.828Z,2.14
2023-02-06T23:38:30.186Z,1.59
2023-02-06T23:41:04.110Z,2.05
2023-02-06T23:43:30.644Z,1.89
2023-02-06T23:45:58.665Z,2.00
2023-02-06T23:48:25.248Z,2.05
2023-02-06T23:50:52.185Z,2.07
2023-02-06T23:53:18.753Z,2.08
2023-02-06T23:55:45.316Z,-1.08
2023-02-06T23:58:11.868Z,0.41
